sensor_id;sensor_type;location;lat;lon;timestamp;pressure;altitude;pressure_sealevel;temperature;humidity
64862;BME280;62652;42.274;-71.436;2022-12-07T00:00:00;102240.0;;;9.222222222222221;100.0
64862;BME280;62652;42.274;-71.436;2022-12-07T00:01:05;102240.0;;;9.277777777777779;100.0
64862;BME280;62652;42.274;-71.436;2022-12-07T00:02:01;102240.0;;;9.277777777777779;100.0
64862;BME280;62652;42.274;-71.436;2022-12-07T00:03:00;102240.0;;;9.277777777777779;100.0
64862;BME280;62652;42.274;-71.436;2022-12-07T00:04:02;102240.0;;;9.222222222222221;100.0
64862;BME280;62652;42.274;-71.436;2022-12-07T00:05:00;102240.0;;;9.277777777777779;100.0
64862;BME280;62652;42.274;-71.436;2022-12-07T00:06:02;102240.0;;;9.277777777777779;100.0
64862;BME280;62652;42.274;-71.436;2022-12-07T00:07:00;102230.0;;;9.611111111111109;100.0
64862;BME280;62652;42.274;-71.436;2022-12-07T00:08:00;102230.0;;;9.611111111111109;100.0
64862;BME280;62652;42.274;-71.436;2022-12-07T00:09:00;102230.0;;;9.722222222222221;100.0
64862;BME280;62652;42.274;-71.436;2022-12-07T00:10:00;102230.0;;;9.722222222222221;100.0
64862;BME280;62652;42.274;-71.436;2022-12-07T00:11:02;102220.0;;;9.777777777777779;100.0
64862;BME280;62652;42.274;-71.436;2022-12-07T00:12:00;102220.0;;;9.722222222222221;100.0
64862;BME280;62652;42.274;-71.436;2022-12-07T00:13:00;102220.0;;;9.611111111111109;100.0
64862;BME280;62652;42.274;-71.436;2022-12-07T00:14:03;102220.0;;;9.777777777777779;100.0
64862;BME280;62652;42.274;-71.436;2022-12-07T00:15:01;102220.0;;;9.611111111111109;100.0
64862;BME280;62652;42.274;-71.436;2022-12-07T00:16:01;102220.0;;;9.722222222222221;100.0
64862;BME280;62652;42.274;-71.436;2022-12-07T00:17:00;102220.0;;;9.722222222222221;100.0
64862;BME280;62652;42.274;-71.436;2022-12-07T00:18:00;102210.0;;;9.777777777777779;100.0
64862;BME280;62652;42.274;-71.436;2022-12-07T00:19:02;102220.0;;;9.722222222222221;100.0
64862;BME280;62652;42.274;-71.436;2022-12-07T00:20:00;102220.0;;;9.5;100.0
64862;BME280;62652;42.274;-71.436;2022-12-07T00:21:01;102220.0;;;9.38888888888889;100.0
64862;BME280;62652;42.274;-71.436;2022-12-07T00:22:00;102220.0;;;9.5;100.0
64862;BME280;62652;42.274;-71.436;2022-12-07T00:23:01;102230.0;;;9.611111111111109;100.0
64862;BME280;62652;42.274;-71.436;2022-12-07T00:24:01;102230.0;;;9.611111111111109;100.0
64862;BME280;62652;42.274;-71.436;2022-12-07T00:25:01;102230.0;;;9.611111111111109;100.0
64862;BME280;62652;42.274;-71.436;2022-12-07T00:26:06;102230.0;;;9.611111111111109;100.0
64862;BME280;62652;42.274;-71.436;2022-12-07T00:27:01;102230.0;;;9.5;100.0
64862;BME280;62652;42.274;-71.436;2022-12-07T00:28:00;102230.0;;;9.38888888888889;100.0
64862;BME280;62652;42.274;-71.436;2022-12-07T00:29:02;102220.0;;;9.5;100.0
64862;BME280;62652;42.274;-71.436;2022-12-07T00:30:00;102220.0;;;9.5;100.0
64862;BME280;62652;42.274;-71.436;2022-12-07T00:31:02;102220.0;;;9.5;100.0
64862;BME280;62652;42.274;-71.436;2022-12-07T00:32:00;102220.0;;;9.38888888888889;100.0
64862;BME280;62652;42.274;-71.436;2022-12-07T00:33:00;102220.0;;;9.611111111111109;100.0
64862;BME280;62652;42.274;-71.436;2022-12-07T00:34:01;102220.0;;;9.5;100.0
64862;BME280;62652;42.274;-71.436;2022-12-07T00:35:00;102220.0;;;9.38888888888889;100.0
64862;BME280;62652;42.274;-71.436;2022-12-07T00:36:02;102210.0;;;9.5;100.0
64862;BME280;62652;42.274;-71.436;2022-12-07T00:37:00;102220.0;;;9.5;100.0
64862;BME280;62652;42.274;-71.436;2022-12-07T00:38:00;102220.0;;;9.38888888888889;100.0
64862;BME280;62652;42.274;-71.436;2022-12-07T00:39:00;102220.0;;;9.38888888888889;100.0
64862;BME280;62652;42.274;-71.436;2022-12-07T00:40:00;102220.0;;;9.277777777777779;100.0
64862;BME280;62652;42.274;-71.436;2022-12-07T00:41:02;102220.0;;;9.277777777777779;100.0
64862;BME280;62652;42.274;-71.436;2022-12-07T00:42:00;102210.0;;;9.38888888888889;100.0
64862;BME280;62652;42.274;-71.436;2022-12-07T00:43:00;102220.0;;;9.5;100.0
64862;BME280;62652;42.274;-71.436;2022-12-07T00:44:00;102220.0;;;9.38888888888889;100.0
64862;BME280;62652;42.274;-71.436;2022-12-07T00:45:01;102220.0;;;9.277777777777779;100.0
64862;BME280;62652;42.274;-71.436;2022-12-07T00:46:00;102220.0;;;9.222222222222221;100.0
64862;BME280;62652;42.274;-71.436;2022-12-07T00:47:00;102220.0;;;9.11111111111111;100.0
64862;BME280;62652;42.274;-71.436;2022-12-07T00:48:00;102220.0;;;9.11111111111111;100.0
64862;BME280;62652;42.274;-71.436;2022-12-07T00:49:00;102220.0;;;9.11111111111111;100.0
64862;BME280;62652;42.274;-71.436;2022-12-07T00:50:01;102220.0;;;9.11111111111111;100.0
64862;BME280;62652;42.274;-71.436;2022-12-07T00:51:01;102210.0;;;9.222222222222221;100.0
64862;BME280;62652;42.274;-71.436;2022-12-07T00:52:00;102210.0;;;9.277777777777779;100.0
64862;BME280;62652;42.274;-71.436;2022-12-07T00:53:00;102210.0;;;9.277777777777779;100.0
64862;BME280;62652;42.274;-71.436;2022-12-07T00:54:01;102210.0;;;9.277777777777779;100.0
64862;BME280;62652;42.274;-71.436;2022-12-07T00:55:01;102210.0;;;9.222222222222221;100.0
64862;BME280;62652;42.274;-71.436;2022-12-07T00:56:05;102200.0;;;9.222222222222221;100.0
64862;BME280;62652;42.274;-71.436;2022-12-07T00:57:00;102200.0;;;9.277777777777779;100.0
64862;BME280;62652;42.274;-71.436;2022-12-07T00:58:00;102200.0;;;9.38888888888889;100.0
64862;BME280;62652;42.274;-71.436;2022-12-07T00:59:02;102200.0;;;9.277777777777779;100.0
64862;BME280;62652;42.274;-71.436;2022-12-07T01:00:00;102200.0;;;9.222222222222221;100.0
64862;BME280;62652;42.274;-71.436;2022-12-07T01:01:01;102200.0;;;9.222222222222221;100.0
64862;BME280;62652;42.274;-71.436;2022-12-07T01:02:01;102210.0;;;9.11111111111111;100.0
64862;BME280;62652;42.274;-71.436;2022-12-07T01:03:00;102210.0;;;9.277777777777779;100.0
64862;BME280;62652;42.274;-71.436;2022-12-07T01:04:01;102210.0;;;9.38888888888889;100.0
64862;BME280;62652;42.274;-71.436;2022-12-07T01:05:00;102210.0;;;9.38888888888889;100.0
64862;BME280;62652;42.274;-71.436;2022-12-07T01:06:01;102210.0;;;9.38888888888889;100.0
64862;BME280;62652;42.274;-71.436;2022-12-07T01:07:00;102220.0;;;9.38888888888889;100.0
64862;BME280;62652;42.274;-71.436;2022-12-07T01:08:01;102220.0;;;9.277777777777779;100.0
64862;BME280;62652;42.274;-71.436;2022-12-07T01:09:01;102210.0;;;9.222222222222221;100.0
64862;BME280;62652;42.274;-71.436;2022-12-07T01:10:00;102210.0;;;9.222222222222221;100.0
64862;BME280;62652;42.274;-71.436;2022-12-07T01:11:03;102210.0;;;9.277777777777779;100.0
64862;BME280;62652;42.274;-71.436;2022-12-07T01:12:00;102210.0;;;9.277777777777779;100.0
64862;BME280;62652;42.274;-71.436;2022-12-07T01:13:01;102200.0;;;9.277777777777779;100.0
64862;BME280;62652;42.274;-71.436;2022-12-07T01:14:01;102210.0;;;9.38888888888889;100.0
64862;BME280;62652;42.274;-71.436;2022-12-07T01:15:01;102210.0;;;9.38888888888889;100.0
64862;BME280;62652;42.274;-71.436;2022-12-07T01:16:02;102200.0;;;9.5;100.0
64862;BME280;62652;42.274;-71.436;2022-12-07T01:17:00;102200.0;;;9.38888888888889;100.0
64862;BME280;62652;42.274;-71.436;2022-12-07T01:18:00;102200.0;;;9.38888888888889;100.0
64862;BME280;62652;42.274;-71.436;2022-12-07T01:19:01;102200.0;;;9.222222222222221;100.0
64862;BME280;62652;42.274;-71.436;2022-12-07T01:20:00;102200.0;;;9.38888888888889;100.0
64862;BME280;62652;42.274;-71.436;2022-12-07T01:21:02;102200.0;;;9.277777777777779;100.0
64862;BME280;62652;42.274;-71.436;2022-12-07T01:22:00;102200.0;;;9.277777777777779;100.0
64862;BME280;62652;42.274;-71.436;2022-12-07T01:23:02;102190.0;;;9.277777777777779;100.0
64862;BME280;62652;42.274;-71.436;2022-12-07T01:24:00;102190.0;;;9.277777777777779;100.0
64862;BME280;62652;42.274;-71.436;2022-12-07T01:25:01;102190.0;;;9.277777777777779;100.0
64862;BME280;62652;42.274;-71.436;2022-12-07T01:26:02;102190.0;;;9.222222222222221;100.0
64862;BME280;62652;42.274;-71.436;2022-12-07T01:27:00;102190.0;;;9.277777777777779;100.0
64862;BME280;62652;42.274;-71.436;2022-12-07T01:28:00;102190.0;;;9.277777777777779;100.0
64862;BME280;62652;42.274;-71.436;2022-12-07T01:29:00;102190.0;;;9.277777777777779;100.0
64862;BME280;62652;42.274;-71.436;2022-12-07T01:30:01;102190.0;;;9.277777777777779;100.0
64862;BME280;62652;42.274;-71.436;2022-12-07T01:31:02;102190.0;;;9.38888888888889;100.0
64862;BME280;62652;42.274;-71.436;2022-12-07T01:32:00;102200.0;;;9.38888888888889;100.0
64862;BME280;62652;42.274;-71.436;2022-12-07T01:33:00;102200.0;;;9.611111111111109;100.0
64862;BME280;62652;42.274;-71.436;2022-12-07T01:34:00;102200.0;;;9.277777777777779;100.0
64862;BME280;62652;42.274;-71.436;2022-12-07T01:35:00;102200.0;;;9.38888888888889;100.0
64862;BME280;62652;42.274;-71.436;2022-12-07T01:36:01;102200.0;;;9.277777777777779;100.0
64862;BME280;62652;42.274;-71.436;2022-12-07T01:37:00;102200.0;;;9.222222222222221;100.0
64862;BME280;62652;42.274;-71.436;2022-12-07T01:38:00;102200.0;;;9.222222222222221;100.0
64862;BME280;62652;42.274;-71.436;2022-12-07T01:39:03;102200.0;;;9.222222222222221;100.0
64862;BME280;62652;42.274;-71.436;2022-12-07T01:40:01;102200.0;;;9.222222222222221;100.0
64862;BME280;62652;42.274;-71.436;2022-12-07T01:41:01;102200.0;;;9.277777777777779;100.0
64862;BME280;62652;42.274;-71.436;2022-12-07T01:42:00;102200.0;;;9.222222222222221;100.0
64862;BME280;62652;42.274;-71.436;2022-12-07T01:43:00;102190.0;;;9.222222222222221;100.0
64862;BME280;62652;42.274;-71.436;2022-12-07T01:44:11;102200.0;;;9.277777777777779;100.0
64862;BME280;62652;42.274;-71.436;2022-12-07T01:46:02;102200.0;;;9.277777777777779;100.0
64862;BME280;62652;42.274;-71.436;2022-12-07T01:47:02;102200.0;;;9.222222222222221;100.0
64862;BME280;62652;42.274;-71.436;2022-12-07T01:48:01;102200.0;;;9.11111111111111;100.0
64862;BME280;62652;42.274;-71.436;2022-12-07T01:49:01;102200.0;;;9.11111111111111;100.0
64862;BME280;62652;42.274;-71.436;2022-12-07T01:50:00;102200.0;;;9.11111111111111;100.0
64862;BME280;62652;42.274;-71.436;2022-12-07T01:51:06;102200.0;;;9.222222222222221;100.0
64862;BME280;62652;42.274;-71.436;2022-12-07T01:52:04;102210.0;;;9.222222222222221;100.0
64862;BME280;62652;42.274;-71.436;2022-12-07T01:53:03;102210.0;;;9.222222222222221;100.0
64862;BME280;62652;42.274;-71.436;2022-12-07T01:54:01;102210.0;;;9.222222222222221;100.0
64862;BME280;62652;42.274;-71.436;2022-12-07T01:55:03;102210.0;;;9.277777777777779;100.0
64862;BME280;62652;42.274;-71.436;2022-12-07T01:56:00;102210.0;;;9.38888888888889;100.0
64862;BME280;62652;42.274;-71.436;2022-12-07T01:57:01;102210.0;;;9.38888888888889;100.0
64862;BME280;62652;42.274;-71.436;2022-12-07T01:58:00;102200.0;;;9.38888888888889;100.0
64862;BME280;62652;42.274;-71.436;2022-12-07T01:59:01;102210.0;;;9.222222222222221;100.0
64862;BME280;62652;42.274;-71.436;2022-12-07T02:00:01;102210.0;;;9.222222222222221;100.0
64862;BME280;62652;42.274;-71.436;2022-12-07T02:01:00;102210.0;;;9.11111111111111;100.0
64862;BME280;62652;42.274;-71.436;2022-12-07T02:02:02;102210.0;;;9.11111111111111;100.0
64862;BME280;62652;42.274;-71.436;2022-12-07T02:03:04;102210.0;;;9.000000000000002;100.0
64862;BME280;62652;42.274;-71.436;2022-12-07T02:04:01;102210.0;;;9.000000000000002;100.0
64862;BME280;62652;42.274;-71.436;2022-12-07T02:05:02;102210.0;;;9.000000000000002;100.0
64862;BME280;62652;42.274;-71.436;2022-12-07T02:06:00;102210.0;;;9.000000000000002;100.0
64862;BME280;62652;42.274;-71.436;2022-12-07T02:07:00;102210.0;;;9.000000000000002;100.0
64862;BME280;62652;42.274;-71.436;2022-12-07T02:08:01;102200.0;;;9.000000000000002;100.0
64862;BME280;62652;42.274;-71.436;2022-12-07T02:09:00;102200.0;;;9.000000000000002;100.0
64862;BME280;62652;42.274;-71.436;2022-12-07T02:10:12;102200.0;;;9.000000000000002;100.0
64862;BME280;62652;42.274;-71.436;2022-12-07T02:11:02;102200.0;;;9.000000000000002;100.0
64862;BME280;62652;42.274;-71.436;2022-12-07T02:12:01;102190.0;;;9.222222222222221;100.0
64862;BME280;62652;42.274;-71.436;2022-12-07T02:13:03;102200.0;;;9.222222222222221;100.0
64862;BME280;62652;42.274;-71.436;2022-12-07T02:14:00;102190.0;;;9.222222222222221;100.0
64862;BME280;62652;42.274;-71.436;2022-12-07T02:15:00;102190.0;;;9.11111111111111;100.0
64862;BME280;62652;42.274;-71.436;2022-12-07T02:16:09;102200.0;;;9.000000000000002;100.0
64862;BME280;62652;42.274;-71.436;2022-12-07T02:17:09;102190.0;;;9.000000000000002;100.0
64862;BME280;62652;42.274;-71.436;2022-12-07T02:18:02;102200.0;;;9.11111111111111;100.0
64862;BME280;62652;42.274;-71.436;2022-12-07T02:19:18;102190.0;;;9.11111111111111;100.0
64862;BME280;62652;42.274;-71.436;2022-12-07T02:20:12;102190.0;;;9.000000000000002;100.0
64862;BME280;62652;42.274;-71.436;2022-12-07T02:21:07;102190.0;;;9.11111111111111;100.0
64862;BME280;62652;42.274;-71.436;2022-12-07T02:22:11;102190.0;;;9.11111111111111;100.0
64862;BME280;62652;42.274;-71.436;2022-12-07T02:23:20;102190.0;;;9.11111111111111;100.0
64862;BME280;62652;42.274;-71.436;2022-12-07T02:24:14;102190.0;;;9.11111111111111;100.0
64862;BME280;62652;42.274;-71.436;2022-12-07T02:25:07;102190.0;;;9.222222222222221;100.0
64862;BME280;62652;42.274;-71.436;2022-12-07T02:27:17;102190.0;;;9.11111111111111;100.0
64862;BME280;62652;42.274;-71.436;2022-12-07T02:28:05;102190.0;;;9.11111111111111;100.0
64862;BME280;62652;42.274;-71.436;2022-12-07T02:29:10;102190.0;;;9.000000000000002;100.0
64862;BME280;62652;42.274;-71.436;2022-12-07T02:30:03;102190.0;;;9.000000000000002;100.0
64862;BME280;62652;42.274;-71.436;2022-12-07T02:31:04;102200.0;;;9.000000000000002;100.0
64862;BME280;62652;42.274;-71.436;2022-12-07T02:32:06;102190.0;;;9.000000000000002;100.0
64862;BME280;62652;42.274;-71.436;2022-12-07T02:33:05;102200.0;;;9.000000000000002;100.0
64862;BME280;62652;42.274;-71.436;2022-12-07T02:34:05;102200.0;;;9.000000000000002;100.0
64862;BME280;62652;42.274;-71.436;2022-12-07T02:35:05;102200.0;;;9.000000000000002;100.0
64862;BME280;62652;42.274;-71.436;2022-12-07T02:36:04;102200.0;;;8.88888888888889;100.0
64862;BME280;62652;42.274;-71.436;2022-12-07T02:37:07;102200.0;;;8.88888888888889;100.0
64862;BME280;62652;42.274;-71.436;2022-12-07T02:38:06;102200.0;;;9.000000000000002;100.0
64862;BME280;62652;42.274;-71.436;2022-12-07T02:39:04;102200.0;;;9.000000000000002;100.0
64862;BME280;62652;42.274;-71.436;2022-12-07T02:40:05;102200.0;;;8.88888888888889;100.0
64862;BME280;62652;42.274;-71.436;2022-12-07T02:41:05;102200.0;;;9.000000000000002;100.0
64862;BME280;62652;42.274;-71.436;2022-12-07T02:42:06;102200.0;;;9.000000000000002;100.0
64862;BME280;62652;42.274;-71.436;2022-12-07T02:43:05;102200.0;;;8.88888888888889;100.0
64862;BME280;62652;42.274;-71.436;2022-12-07T02:44:03;102210.0;;;8.88888888888889;100.0
64862;BME280;62652;42.274;-71.436;2022-12-07T02:45:01;102200.0;;;8.88888888888889;100.0
64862;BME280;62652;42.274;-71.436;2022-12-07T02:46:03;102200.0;;;8.777777777777777;100.0
64862;BME280;62652;42.274;-71.436;2022-12-07T02:47:03;102200.0;;;8.88888888888889;100.0
64862;BME280;62652;42.274;-71.436;2022-12-07T02:48:02;102200.0;;;8.88888888888889;100.0
64862;BME280;62652;42.274;-71.436;2022-12-07T02:49:00;102200.0;;;8.88888888888889;100.0
64862;BME280;62652;42.274;-71.436;2022-12-07T02:50:04;102200.0;;;8.88888888888889;100.0
64862;BME280;62652;42.274;-71.436;2022-12-07T02:51:01;102200.0;;;8.777777777777777;100.0
64862;BME280;62652;42.274;-71.436;2022-12-07T02:52:00;102200.0;;;8.777777777777777;100.0
64862;BME280;62652;42.274;-71.436;2022-12-07T02:53:00;102210.0;;;8.777777777777777;100.0
64862;BME280;62652;42.274;-71.436;2022-12-07T02:54:00;102210.0;;;8.777777777777777;100.0
64862;BME280;62652;42.274;-71.436;2022-12-07T02:55:01;102210.0;;;8.88888888888889;100.0
64862;BME280;62652;42.274;-71.436;2022-12-07T02:56:05;102210.0;;;9.000000000000002;100.0
64862;BME280;62652;42.274;-71.436;2022-12-07T02:57:09;102210.0;;;9.000000000000002;100.0
64862;BME280;62652;42.274;-71.436;2022-12-07T02:58:14;102210.0;;;9.11111111111111;100.0
64862;BME280;62652;42.274;-71.436;2022-12-07T02:59:10;102210.0;;;9.11111111111111;100.0
64862;BME280;62652;42.274;-71.436;2022-12-07T03:00:04;102210.0;;;9.000000000000002;100.0
64862;BME280;62652;42.274;-71.436;2022-12-07T03:01:08;102210.0;;;9.11111111111111;100.0
64862;BME280;62652;42.274;-71.436;2022-12-07T03:02:12;102210.0;;;9.000000000000002;100.0
64862;BME280;62652;42.274;-71.436;2022-12-07T03:03:06;102200.0;;;9.000000000000002;100.0
64862;BME280;62652;42.274;-71.436;2022-12-07T03:04:09;102200.0;;;9.000000000000002;100.0
64862;BME280;62652;42.274;-71.436;2022-12-07T03:05:12;102200.0;;;9.000000000000002;100.0
64862;BME280;62652;42.274;-71.436;2022-12-07T03:06:09;102200.0;;;9.000000000000002;100.0
64862;BME280;62652;42.274;-71.436;2022-12-07T03:07:06;102200.0;;;9.11111111111111;100.0
64862;BME280;62652;42.274;-71.436;2022-12-07T03:08:04;102190.0;;;9.11111111111111;100.0
64862;BME280;62652;42.274;-71.436;2022-12-07T03:09:09;102190.0;;;9.000000000000002;100.0
64862;BME280;62652;42.274;-71.436;2022-12-07T03:10:06;102190.0;;;9.11111111111111;100.0
64862;BME280;62652;42.274;-71.436;2022-12-07T03:11:03;102190.0;;;9.000000000000002;100.0
64862;BME280;62652;42.274;-71.436;2022-12-07T03:12:05;102180.0;;;9.11111111111111;100.0
64862;BME280;62652;42.274;-71.436;2022-12-07T03:13:04;102180.0;;;9.222222222222221;100.0
64862;BME280;62652;42.274;-71.436;2022-12-07T03:14:04;102170.0;;;9.11111111111111;100.0
64862;BME280;62652;42.274;-71.436;2022-12-07T03:15:05;102170.0;;;9.11111111111111;100.0
64862;BME280;62652;42.274;-71.436;2022-12-07T03:16:04;102170.0;;;9.11111111111111;100.0
64862;BME280;62652;42.274;-71.436;2022-12-07T03:17:04;102170.0;;;9.000000000000002;100.0
64862;BME280;62652;42.274;-71.436;2022-12-07T03:18:03;102170.0;;;9.000000000000002;100.0
64862;BME280;62652;42.274;-71.436;2022-12-07T03:19:03;102170.0;;;8.88888888888889;100.0
64862;BME280;62652;42.274;-71.436;2022-12-07T03:20:04;102170.0;;;8.88888888888889;100.0
64862;BME280;62652;42.274;-71.436;2022-12-07T03:21:05;102160.0;;;8.88888888888889;100.0
64862;BME280;62652;42.274;-71.436;2022-12-07T03:22:03;102160.0;;;8.88888888888889;100.0
64862;BME280;62652;42.274;-71.436;2022-12-07T03:23:00;102160.0;;;8.88888888888889;100.0
64862;BME280;62652;42.274;-71.436;2022-12-07T03:24:05;102160.0;;;9.000000000000002;100.0
64862;BME280;62652;42.274;-71.436;2022-12-07T03:25:04;102160.0;;;9.000000000000002;100.0
64862;BME280;62652;42.274;-71.436;2022-12-07T03:26:01;102160.0;;;9.222222222222221;100.0
64862;BME280;62652;42.274;-71.436;2022-12-07T03:27:04;102160.0;;;9.11111111111111;100.0
64862;BME280;62652;42.274;-71.436;2022-12-07T03:28:03;102170.0;;;9.222222222222221;100.0
64862;BME280;62652;42.274;-71.436;2022-12-07T03:29:07;102170.0;;;9.277777777777779;100.0
64862;BME280;62652;42.274;-71.436;2022-12-07T03:30:06;102170.0;;;9.222222222222221;100.0
64862;BME280;62652;42.274;-71.436;2022-12-07T03:31:03;102170.0;;;9.222222222222221;100.0
64862;BME280;62652;42.274;-71.436;2022-12-07T03:32:04;102170.0;;;9.11111111111111;100.0
64862;BME280;62652;42.274;-71.436;2022-12-07T03:33:05;102170.0;;;9.11111111111111;100.0
64862;BME280;62652;42.274;-71.436;2022-12-07T03:34:06;102170.0;;;9.11111111111111;100.0
64862;BME280;62652;42.274;-71.436;2022-12-07T03:35:05;102170.0;;;9.000000000000002;100.0
64862;BME280;62652;42.274;-71.436;2022-12-07T03:36:05;102170.0;;;9.000000000000002;100.0
64862;BME280;62652;42.274;-71.436;2022-12-07T03:37:05;102180.0;;;9.000000000000002;100.0
64862;BME280;62652;42.274;-71.436;2022-12-07T03:38:08;102170.0;;;9.000000000000002;100.0
64862;BME280;62652;42.274;-71.436;2022-12-07T03:39:04;102170.0;;;9.11111111111111;100.0
64862;BME280;62652;42.274;-71.436;2022-12-07T03:40:06;102180.0;;;9.000000000000002;100.0
64862;BME280;62652;42.274;-71.436;2022-12-07T03:41:04;102180.0;;;9.11111111111111;100.0
64862;BME280;62652;42.274;-71.436;2022-12-07T03:42:02;102170.0;;;9.11111111111111;100.0
64862;BME280;62652;42.274;-71.436;2022-12-07T03:43:01;102170.0;;;9.11111111111111;100.0
64862;BME280;62652;42.274;-71.436;2022-12-07T03:44:01;102170.0;;;9.222222222222221;100.0
64862;BME280;62652;42.274;-71.436;2022-12-07T03:45:02;102170.0;;;9.11111111111111;100.0
64862;BME280;62652;42.274;-71.436;2022-12-07T03:46:09;102170.0;;;9.11111111111111;100.0
64862;BME280;62652;42.274;-71.436;2022-12-07T03:47:05;102170.0;;;9.11111111111111;100.0
64862;BME280;62652;42.274;-71.436;2022-12-07T03:48:07;102170.0;;;9.11111111111111;100.0
64862;BME280;62652;42.274;-71.436;2022-12-07T03:49:06;102180.0;;;9.000000000000002;100.0
64862;BME280;62652;42.274;-71.436;2022-12-07T03:50:06;102170.0;;;8.88888888888889;100.0
64862;BME280;62652;42.274;-71.436;2022-12-07T03:51:08;102170.0;;;8.88888888888889;100.0
64862;BME280;62652;42.274;-71.436;2022-12-07T03:52:05;102170.0;;;9.000000000000002;100.0
64862;BME280;62652;42.274;-71.436;2022-12-07T03:53:05;102160.0;;;9.11111111111111;100.0
64862;BME280;62652;42.274;-71.436;2022-12-07T03:54:09;102160.0;;;9.277777777777779;100.0
64862;BME280;62652;42.274;-71.436;2022-12-07T03:55:05;102160.0;;;9.222222222222221;100.0
64862;BME280;62652;42.274;-71.436;2022-12-07T03:56:02;102160.0;;;9.222222222222221;100.0
64862;BME280;62652;42.274;-71.436;2022-12-07T03:57:01;102160.0;;;9.222222222222221;100.0
64862;BME280;62652;42.274;-71.436;2022-12-07T03:58:04;102150.0;;;9.000000000000002;100.0
64862;BME280;62652;42.274;-71.436;2022-12-07T03:59:01;102150.0;;;9.000000000000002;100.0
64862;BME280;62652;42.274;-71.436;2022-12-07T04:00:03;102150.0;;;8.88888888888889;100.0
64862;BME280;62652;42.274;-71.436;2022-12-07T04:01:01;102150.0;;;9.11111111111111;100.0
64862;BME280;62652;42.274;-71.436;2022-12-07T04:02:03;102150.0;;;9.222222222222221;100.0
64862;BME280;62652;42.274;-71.436;2022-12-07T04:03:00;102140.0;;;9.277777777777779;100.0
64862;BME280;62652;42.274;-71.436;2022-12-07T04:04:00;102140.0;;;9.38888888888889;100.0
64862;BME280;62652;42.274;-71.436;2022-12-07T04:05:01;102140.0;;;9.277777777777779;100.0
64862;BME280;62652;42.274;-71.436;2022-12-07T04:06:00;102140.0;;;9.11111111111111;100.0
64862;BME280;62652;42.274;-71.436;2022-12-07T04:07:00;102140.0;;;9.222222222222221;100.0
64862;BME280;62652;42.274;-71.436;2022-12-07T04:08:00;102130.0;;;9.11111111111111;100.0
64862;BME280;62652;42.274;-71.436;2022-12-07T04:09:00;102130.0;;;9.11111111111111;100.0
64862;BME280;62652;42.274;-71.436;2022-12-07T04:10:00;102140.0;;;9.11111111111111;100.0
64862;BME280;62652;42.274;-71.436;2022-12-07T04:11:01;102130.0;;;9.11111111111111;100.0
64862;BME280;62652;42.274;-71.436;2022-12-07T04:12:00;102130.0;;;9.11111111111111;100.0
64862;BME280;62652;42.274;-71.436;2022-12-07T04:13:01;102130.0;;;9.000000000000002;100.0
64862;BME280;62652;42.274;-71.436;2022-12-07T04:14:00;102130.0;;;9.11111111111111;100.0
64862;BME280;62652;42.274;-71.436;2022-12-07T04:15:02;102130.0;;;9.11111111111111;100.0
64862;BME280;62652;42.274;-71.436;2022-12-07T04:16:00;102130.0;;;9.222222222222221;100.0
64862;BME280;62652;42.274;-71.436;2022-12-07T04:17:00;102130.0;;;9.222222222222221;100.0
64862;BME280;62652;42.274;-71.436;2022-12-07T04:18:00;102120.0;;;9.222222222222221;100.0
64862;BME280;62652;42.274;-71.436;2022-12-07T04:19:00;102120.0;;;9.222222222222221;100.0
64862;BME280;62652;42.274;-71.436;2022-12-07T04:20:00;102120.0;;;9.11111111111111;100.0
64862;BME280;62652;42.274;-71.436;2022-12-07T04:21:00;102120.0;;;9.38888888888889;100.0
64862;BME280;62652;42.274;-71.436;2022-12-07T04:22:03;102120.0;;;9.38888888888889;100.0
64862;BME280;62652;42.274;-71.436;2022-12-07T04:23:00;102120.0;;;9.277777777777779;100.0
64862;BME280;62652;42.274;-71.436;2022-12-07T04:24:01;102120.0;;;9.277777777777779;100.0
64862;BME280;62652;42.274;-71.436;2022-12-07T04:25:00;102110.0;;;9.222222222222221;100.0
64862;BME280;62652;42.274;-71.436;2022-12-07T04:26:00;102120.0;;;9.222222222222221;100.0
64862;BME280;62652;42.274;-71.436;2022-12-07T04:27:01;102120.0;;;9.38888888888889;100.0
64862;BME280;62652;42.274;-71.436;2022-12-07T04:28:01;102120.0;;;9.38888888888889;100.0
64862;BME280;62652;42.274;-71.436;2022-12-07T04:29:00;102120.0;;;9.38888888888889;100.0
64862;BME280;62652;42.274;-71.436;2022-12-07T04:30:00;102120.0;;;9.277777777777779;100.0
64862;BME280;62652;42.274;-71.436;2022-12-07T04:31:00;102120.0;;;9.222222222222221;100.0
64862;BME280;62652;42.274;-71.436;2022-12-07T04:32:01;102120.0;;;9.222222222222221;100.0